createdAt,value
2023-03-07T00:02:08.356Z,77.61
2023-03-07T00:07:09.900Z,78.00
2023-03-07T00:12:11.497Z,77.74
2023-03-07T00:17:13.077Z,77.04
2023-03-07T00:22:14.815Z,76.48
2023-03-07T00:27:16.485Z,75.95
2023-03-07T00:32:18.134Z,76.82
2023-03-07T00:37:19.777Z,76.83
2023-03-07T00:42:21.478Z,77.07
2023-03-07T00:47:23.176Z,76.95
2023-03-07T00:52:24.804Z,76.90
2023-03-07T00:57:26.430Z,77.12
2023-03-07T01:02:28.000Z,77.18
2023-03-07T01:07:29.593Z,76.47
2023-03-07T01:12:31.301Z,77.29
2023-03-07T01:17:33.539Z,77.73
2023-03-07T01:22:35.232Z,77.36
2023-03-07T01:27:36.976Z,76.53
2023-03-07T01:32:38.836Z,77.42
2023-03-07T01:37:40.699Z,77.58
2023-03-07T01:42:43.818Z,77.29
2023-03-07T01:47:45.669Z,76.79
2023-03-07T01:52:59.485Z,76.99
2023-03-07T01:58:06.924Z,76.99
2023-03-07T02:03:20.625Z,78.53
2023-03-07T02:08:25.151Z,78.69
2023-03-07T02:13:26.910Z,78.55
2023-03-07T02:18:31.040Z,77.80
2023-03-07T02:23:45.271Z,77.31
2023-03-07T02:28:48.087Z,76.95
2023-03-07T02:33:51.011Z,75.99
2023-03-07T02:38:54.772Z,75.21
2023-03-07T02:43:58.476Z,74.31
2023-03-07T02:49:00.137Z,74.24
2023-03-07T02:54:02.386Z,74.11
2023-03-07T02:59:04.235Z,74.13
2023-03-07T03:04:06.040Z,72.96
2023-03-07T03:09:07.640Z,72.41
2023-03-07T03:14:09.317Z,72.14
2023-03-07T03:19:10.877Z,71.92
2023-03-07T03:24:12.507Z,72.23
2023-03-07T03:29:15.106Z,71.54
2023-03-07T03:34:17.141Z,71.36
2023-03-07T03:39:18.948Z,70.35
2023-03-07T03:44:25.147Z,70.09
2023-03-07T03:49:27.356Z,70.84
2023-03-07T03:54:30.889Z,71.00
2023-03-07T03:59:32.839Z,71.29
2023-03-07T04:04:35.515Z,70.20
2023-03-07T04:09:37.074Z,70.53
2023-03-07T04:14:38.775Z,70.10
2023-03-07T04:19:40.602Z,70.95
2023-03-07T04:24:42.762Z,70.64
2023-03-07T04:29:44.540Z,71.54
2023-03-07T04:34:51.019Z,71.46
2023-03-07T04:39:52.633Z,70.87
2023-03-07T04:44:54.999Z,71.07
2023-03-07T04:49:56.634Z,70.53
2023-03-07T04:54:58.543Z,69.92
2023-03-07T05:00:00.511Z,69.61
2023-03-07T05:05:03.198Z,70.26
2023-03-07T05:10:05.539Z,70.45
2023-03-07T05:15:08.263Z,69.64
2023-03-07T05:20:10.877Z,69.38
2023-03-07T05:25:13.345Z,70.06
2023-03-07T05:30:16.558Z,70.33
2023-03-07T05:35:18.857Z,69.72
2023-03-07T05:40:21.614Z,69.23
2023-03-07T05:45:24.244Z,69.61
2023-03-07T05:50:26.504Z,69.14
2023-03-07T05:55:28.212Z,70.01
2023-03-07T06:00:30.041Z,69.55
2023-03-07T06:05:34.915Z,69.22
2023-03-07T06:10:39.988Z,67.74
2023-03-07T06:15:43.582Z,66.92
2023-03-07T06:20:57.782Z,67.68
2023-03-07T06:26:01.047Z,67.61
2023-03-07T06:31:08.892Z,67.79
2023-03-07T06:36:12.731Z,67.84
2023-03-07T06:41:16.367Z,67.99
2023-03-07T06:46:18.184Z,68.61
2023-03-07T06:51:19.743Z,70.37
2023-03-07T06:56:22.063Z,69.81
2023-03-07T07:01:23.689Z,70.65
2023-03-07T07:06:27.528Z,70.17
2023-03-07T07:11:29.212Z,70.33
2023-03-07T07:16:33.646Z,70.92
2023-03-07T07:21:35.636Z,70.61
2023-03-07T07:26:38.028Z,70.77
2023-03-07T07:31:39.698Z,71.25
2023-03-07T07:36:42.038Z,71.18
2023-03-07T07:41:44.444Z,71.20
2023-03-07T07:46:46.763Z,71.60
2023-03-07T07:51:48.534Z,72.99
2023-03-07T07:56:50.207Z,72.43
2023-03-07T08:01:52.626Z,74.58
2023-03-07T08:06:54.666Z,75.74
2023-03-07T08:11:56.215Z,75.84
2023-03-07T08:16:57.795Z,75.81
2023-03-07T08:21:59.531Z,75.24
2023-03-07T08:27:01.556Z,75.58
2023-03-07T08:32:03.273Z,74.45
2023-03-07T08:37:04.950Z,75.13
2023-03-07T08:42:06.938Z,75.04
2023-03-07T08:47:08.774Z,74.40
2023-03-07T08:52:10.361Z,73.27
2023-03-07T08:57:11.918Z,73.58
2023-03-07T09:02:13.562Z,72.78
2023-03-07T09:07:15.181Z,72.08
2023-03-07T09:12:16.721Z,71.58
2023-03-07T09:17:19.044Z,70.93
2023-03-07T09:22:20.565Z,69.02
2023-03-07T09:27:22.168Z,69.84
2023-03-07T09:32:23.849Z,69.73
2023-03-07T09:37:25.527Z,69.71
2023-03-07T09:42:55.884Z,70.36
2023-03-07T09:48:04.699Z,68.71
2023-03-07T09:53:06.456Z,69.04
2023-03-07T09:58:12.669Z,68.55
2023-03-07T10:03:21.504Z,68.55
2023-03-07T10:08:33.660Z,68.66
2023-03-07T10:13:47.359Z,68.00
2023-03-07T10:19:05.597Z,68.33
2023-03-07T10:24:17.292Z,67.80
2023-03-07T10:29:19.996Z,67.75
2023-03-07T10:34:31.275Z,67.67
2023-03-07T10:39:43.561Z,67.70
2023-03-07T10:44:47.901Z,67.54
2023-03-07T10:49:52.360Z,66.73
2023-03-07T10:54:55.104Z,66.22
2023-03-07T11:00:13.572Z,65.92
2023-03-07T11:05:28.066Z,64.93
2023-03-07T11:10:40.099Z,64.36
2023-03-07T11:15:41.836Z,63.46
2023-03-07T11:20:50.388Z,63.29
2023-03-07T11:25:53.485Z,62.81
2023-03-07T11:31:16.561Z,62.07
2023-03-07T11:36:36.618Z,61.77
2023-03-07T11:41:41.220Z,61.95
2023-03-07T11:47:01.384Z,62.93
2023-03-07T11:52:33.528Z,63.33
2023-03-07T11:57:50.816Z,63.08
2023-03-07T12:03:04.325Z,62.98
2023-03-07T12:08:14.808Z,62.15
2023-03-07T12:13:21.478Z,61.80
2023-03-07T12:18:41.078Z,60.59
2023-03-07T12:23:47.450Z,60.52
2023-03-07T12:29:03.480Z,60.43
2023-03-07T12:34:11.112Z,60.29
2023-03-07T12:39:18.032Z,60.22
2023-03-07T12:44:56.562Z,59.66
2023-03-07T12:50:26.211Z,59.10
2023-03-07T12:55:46.714Z,58.65
2023-03-07T13:00:51.609Z,58.04
2023-03-07T13:05:53.310Z,57.09
2023-03-07T13:10:55.898Z,57.25
2023-03-07T13:16:06.846Z,57.53
2023-03-07T13:21:14.083Z,57.50
2023-03-07T13:26:23.169Z,57.13
2023-03-07T13:31:28.153Z,57.18
2023-03-07T13:36:39.430Z,56.51
2023-03-07T13:41:49.122Z,56.89
2023-03-07T13:46:52.435Z,56.11
2023-03-07T13:52:17.737Z,56.66
2023-03-07T13:57:20.630Z,57.21
2023-03-07T14:02:23.181Z,57.54
2023-03-07T14:07:28.156Z,57.62
2023-03-07T14:12:40.143Z,58.39
2023-03-07T14:17:54.758Z,58.26
2023-03-07T14:23:21.016Z,58.08
2023-03-07T14:28:27.499Z,58.40
2023-03-07T14:33:33.388Z,58.55
2023-03-07T14:38:34.950Z,58.56
2023-03-07T14:43:42.142Z,59.61
2023-03-07T14:49:09.718Z,60.03
2023-03-07T14:54:17.426Z,61.15
2023-03-07T14:59:28.080Z,61.13
2023-03-07T15:04:32.456Z,60.57
2023-03-07T15:09:34.367Z,61.22
2023-03-07T15:14:54.692Z,60.16
2023-03-07T15:20:07.421Z,59.74
2023-03-07T15:25:25.374Z,58.99
2023-03-07T15:30:53.215Z,58.85
2023-03-07T15:36:13.486Z,58.22
2023-03-07T15:41:34.561Z,58.37
2023-03-07T15:46:45.129Z,57.77
2023-03-07T15:51:46.776Z,57.65
2023-03-07T15:56:59.390Z,57.52
2023-03-07T16:02:31.940Z,57.95
2023-03-07T16:07:33.731Z,57.58
2023-03-07T16:12:35.443Z,57.33
2023-03-07T16:17:37.910Z,57.53
2023-03-07T16:22:39.478Z,57.40
2023-03-07T16:27:44.689Z,57.31
2023-03-07T16:32:46.393Z,57.24
2023-03-07T16:37:48.079Z,57.35
2023-03-07T16:42:53.139Z,57.28
2023-03-07T16:47:59.362Z,56.56
2023-03-07T16:53:00.990Z,56.89
2023-03-07T16:58:04.482Z,59.14
2023-03-07T17:03:06.158Z,61.02
2023-03-07T17:08:08.686Z,64.79
2023-03-07T17:13:14.848Z,65.67
2023-03-07T17:18:16.507Z,68.61
2023-03-07T17:23:22.325Z,68.60
2023-03-07T17:28:25.204Z,74.87
2023-03-07T17:33:27.913Z,76.45
2023-03-07T17:38:29.999Z,73.73
2023-03-07T17:43:33.891Z,78.10
2023-03-07T17:48:36.139Z,79.21
2023-03-07T17:53:40.131Z,79.77
2023-03-07T17:59:09.148Z,79.18
2023-03-07T18:04:11.090Z,78.99
2023-03-07T18:09:13.443Z,78.51
2023-03-07T18:14:15.062Z,77.58
2023-03-07T18:19:25.695Z,77.40
2023-03-07T18:24:29.990Z,78.52
2023-03-07T18:29:32.063Z,77.32
2023-03-07T18:34:33.639Z,78.30
2023-03-07T18:39:36.097Z,79.06
2023-03-07T18:44:41.626Z,78.17
2023-03-07T18:49:43.364Z,78.04
2023-03-07T18:54:45.068Z,78.64
2023-03-07T18:59:46.705Z,78.53
2023-03-07T19:04:48.439Z,79.80
2023-03-07T19:09:53.549Z,78.60
2023-03-07T19:14:55.416Z,78.88
2023-03-07T19:19:59.325Z,79.05
2023-03-07T19:25:01.034Z,79.07
2023-03-07T19:30:02.770Z,78.93
2023-03-07T19:35:04.815Z,79.93
2023-03-07T19:40:07.246Z,79.44
2023-03-07T19:45:09.390Z,79.70
2023-03-07T19:50:11.655Z,82.03
2023-03-07T19:55:13.410Z,80.60
2023-03-07T20:00:15.484Z,81.93
2023-03-07T20:05:17.289Z,80.53
2023-03-07T20:10:19.180Z,79.76
2023-03-07T20:15:20.911Z,79.92
2023-03-07T20:20:22.550Z,79.49
2023-03-07T20:25:24.334Z,81.97
2023-03-07T20:30:25.929Z,81.56
2023-03-07T20:35:27.498Z,81.25
2023-03-07T20:40:29.050Z,81.68
2023-03-07T20:45:30.602Z,80.97
2023-03-07T20:50:32.162Z,80.74
2023-03-07T20:55:33.818Z,81.95
2023-03-07T21:00:35.406Z,80.92
2023-03-07T21:05:37.012Z,81.46
2023-03-07T21:10:38.633Z,81.42
2023-03-07T21:15:42.831Z,81.43
2023-03-07T21:20:44.388Z,82.04
2023-03-07T21:25:46.631Z,81.82
2023-03-07T21:30:49.646Z,80.65
2023-03-07T21:35:51.384Z,80.98
2023-03-07T21:40:56.501Z,80.86
2023-03-07T21:45:59.163Z,80.50
2023-03-07T21:51:01.047Z,82.05
2023-03-07T21:56:07.783Z,82.11
2023-03-07T22:01:14.613Z,81.79
2023-03-07T22:06:16.911Z,82.50
2023-03-07T22:11:18.755Z,82.86
2023-03-07T22:16:20.787Z,83.48
2023-03-07T22:21:25.960Z,82.88
2023-03-07T22:26:29.848Z,82.70
2023-03-07T22:31:31.499Z,81.77
2023-03-07T22:36:33.089Z,84.30
2023-03-07T22:41:34.736Z,85.35
2023-03-07T22:46:36.309Z,85.64
2023-03-07T22:51:38.075Z,86.16
2023-03-07T22:56:39.643Z,86.41
2023-03-07T23:01:41.455Z,84.88
2023-03-07T23:06:43.141Z,86.53
2023-03-07T23:11:46.350Z,85.83
2023-03-07T23:16:48.036Z,87.79
2023-03-07T23:21:49.739Z,87.75
2023-03-07T23:26:51.435Z,87.99
2023-03-07T23:31:53.072Z,87.79
2023-03-07T23:36:54.640Z,86.89
2023-03-07T23:41:56.221Z,87.59
2023-03-07T23:46:57.761Z,87.74
2023-03-07T23:51:59.337Z,86.97
2023-03-07T23:57:00.935Z,85.93
